sensor_id;sensor_type;location;lat;lon;timestamp;pressure;altitude;pressure_sealevel;temperature;humidity
10460;BME280;54412;51.206;6.888;2023-03-03T00:01:33;101510.59;;;5.42;59.26
10460;BME280;54412;51.206;6.888;2023-03-03T00:03:59;101512.47;;;5.33;60.28
10460;BME280;54412;51.206;6.888;2023-03-03T00:06:25;101509.06;;;5.28;60.10
10460;BME280;54412;51.206;6.888;2023-03-03T00:08:51;101509.84;;;5.33;59.91
10460;BME280;54412;51.206;6.888;2023-03-03T00:11:17;101513.34;;;5.32;60.27
10460;BME280;54412;51.206;6.888;2023-03-03T00:13:47;101513.50;;;5.22;60.76
10460;BME280;54412;51.206;6.888;2023-03-03T00:16:34;101507.22;;;5.33;59.93
10460;BME280;54412;51.206;6.888;2023-03-03T00:19:02;101513.75;;;5.05;60.74
10460;BME280;54412;51.206;6.888;2023-03-03T00:21:44;101510.09;;;5.17;60.66
10460;BME280;54412;51.206;6.888;2023-03-03T00:24:14;101510.19;;;5.09;60.93
10460;BME280;54412;51.206;6.888;2023-03-03T00:26:46;101524.75;;;5.28;60.45
10460;BME280;54412;51.206;6.888;2023-03-03T00:29:37;101521.91;;;5.42;60.05
10460;BME280;54412;51.206;6.888;2023-03-03T00:34:40;101518.72;;;5.22;60.77
10460;BME280;54412;51.206;6.888;2023-03-03T00:37:26;101522.97;;;5.32;60.65
10460;BME280;54412;51.206;6.888;2023-03-03T00:39:52;101528.19;;;5.32;60.78
10460;BME280;54412;51.206;6.888;2023-03-03T00:42:18;101525.03;;;5.07;61.88
10460;BME280;54412;51.206;6.888;2023-03-03T00:44:58;101526.97;;;4.92;62.76
10460;BME280;54412;51.206;6.888;2023-03-03T00:47:37;101541.34;;;5.26;61.55
10460;BME280;54412;51.206;6.888;2023-03-03T00:52:52;101535.38;;;5.15;62.03
10460;BME280;54412;51.206;6.888;2023-03-03T00:55:20;101537.88;;;5.24;62.09
10460;BME280;54412;51.206;6.888;2023-03-03T00:57:46;101528.09;;;5.40;61.86
10460;BME280;54412;51.206;6.888;2023-03-03T01:00:13;101531.50;;;5.43;61.60
10460;BME280;54412;51.206;6.888;2023-03-03T01:02:38;101539.22;;;5.52;61.20
10460;BME280;54412;51.206;6.888;2023-03-03T01:05:04;101550.09;;;5.22;62.52
10460;BME280;54412;51.206;6.888;2023-03-03T01:07:30;101553.56;;;5.27;62.11
10460;BME280;54412;51.206;6.888;2023-03-03T01:09:56;101549.22;;;5.24;62.19
10460;BME280;54412;51.206;6.888;2023-03-03T01:12:23;101555.25;;;5.28;62.27
10460;BME280;54412;51.206;6.888;2023-03-03T01:14:48;101542.19;;;5.28;62.69
10460;BME280;54412;51.206;6.888;2023-03-03T01:17:17;101554.34;;;5.32;62.67
10460;BME280;54412;51.206;6.888;2023-03-03T01:19:43;101555.06;;;5.43;61.94
10460;BME280;54412;51.206;6.888;2023-03-03T01:22:08;101550.22;;;5.13;63.06
10460;BME280;54412;51.206;6.888;2023-03-03T01:24:34;101551.78;;;5.27;63.15
10460;BME280;54412;51.206;6.888;2023-03-03T01:27:00;101556.47;;;5.03;63.59
10460;BME280;54412;51.206;6.888;2023-03-03T01:29:25;101548.59;;;5.06;63.65
10460;BME280;54412;51.206;6.888;2023-03-03T01:31:51;101560.56;;;5.25;63.19
10460;BME280;54412;51.206;6.888;2023-03-03T01:34:17;101559.56;;;5.33;62.85
10460;BME280;54412;51.206;6.888;2023-03-03T01:36:42;101566.84;;;5.07;63.45
10460;BME280;54412;51.206;6.888;2023-03-03T01:39:10;101565.28;;;4.96;63.55
10460;BME280;54412;51.206;6.888;2023-03-03T01:41:36;101569.44;;;5.12;63.30
10460;BME280;54412;51.206;6.888;2023-03-03T01:44:02;101560.09;;;4.91;64.32
10460;BME280;54412;51.206;6.888;2023-03-03T01:47:06;101564.19;;;5.12;63.36
10460;BME280;54412;51.206;6.888;2023-03-03T01:49:53;101561.84;;;4.89;63.94
10460;BME280;54412;51.206;6.888;2023-03-03T01:52:25;101570.47;;;4.99;64.07
10460;BME280;54412;51.206;6.888;2023-03-03T01:55:02;101572.09;;;5.09;63.99
10460;BME280;54412;51.206;6.888;2023-03-03T01:57:35;101568.38;;;5.23;63.42
10460;BME280;54412;51.206;6.888;2023-03-03T02:00:04;101558.63;;;5.38;62.79
10460;BME280;54412;51.206;6.888;2023-03-03T02:02:31;101557.09;;;5.23;63.21
10460;BME280;54412;51.206;6.888;2023-03-03T02:04:57;101561.03;;;4.86;64.29
10460;BME280;54412;51.206;6.888;2023-03-03T02:07:26;101558.25;;;4.99;64.47
10460;BME280;54412;51.206;6.888;2023-03-03T02:10:10;101557.44;;;4.96;64.21
10460;BME280;54412;51.206;6.888;2023-03-03T02:12:54;101555.59;;;5.02;64.42
10460;BME280;54412;51.206;6.888;2023-03-03T02:15:34;101555.66;;;4.99;64.73
10460;BME280;54412;51.206;6.888;2023-03-03T02:18:08;101551.25;;;5.03;64.55
10460;BME280;54412;51.206;6.888;2023-03-03T02:24:11;101556.78;;;4.77;65.02
10460;BME280;54412;51.206;6.888;2023-03-03T02:26:40;101560.78;;;5.07;64.68
10460;BME280;54412;51.206;6.888;2023-03-03T02:29:08;101569.59;;;5.00;64.50
10460;BME280;54412;51.206;6.888;2023-03-03T02:31:35;101565.31;;;4.94;65.29
10460;BME280;54412;51.206;6.888;2023-03-03T02:34:01;101558.19;;;5.04;65.08
10460;BME280;54412;51.206;6.888;2023-03-03T02:36:35;101557.28;;;5.08;64.58
10460;BME280;54412;51.206;6.888;2023-03-03T02:39:20;101566.75;;;5.18;64.64
10460;BME280;54412;51.206;6.888;2023-03-03T02:42:00;101571.03;;;5.22;64.23
10460;BME280;54412;51.206;6.888;2023-03-03T02:44:30;101563.22;;;5.19;63.94
10460;BME280;54412;51.206;6.888;2023-03-03T02:46:58;101568.53;;;5.13;64.36
10460;BME280;54412;51.206;6.888;2023-03-03T02:49:28;101554.25;;;5.40;63.53
10460;BME280;54412;51.206;6.888;2023-03-03T02:51:55;101559.78;;;5.17;64.31
10460;BME280;54412;51.206;6.888;2023-03-03T02:54:24;101570.19;;;5.18;64.04
10460;BME280;54412;51.206;6.888;2023-03-03T02:56:50;101572.50;;;4.76;65.52
10460;BME280;54412;51.206;6.888;2023-03-03T02:59:17;101563.31;;;5.11;65.29
10460;BME280;54412;51.206;6.888;2023-03-03T03:01:45;101560.03;;;4.97;65.02
10460;BME280;54412;51.206;6.888;2023-03-03T03:04:18;101564.91;;;4.53;66.26
10460;BME280;54412;51.206;6.888;2023-03-03T03:06:44;101581.00;;;4.91;65.92
10460;BME280;54412;51.206;6.888;2023-03-03T03:09:12;101578.59;;;4.73;65.96
10460;BME280;54412;51.206;6.888;2023-03-03T03:11:38;101588.00;;;4.91;65.33
10460;BME280;54412;51.206;6.888;2023-03-03T03:14:06;101593.13;;;5.00;65.37
10460;BME280;54412;51.206;6.888;2023-03-03T03:16:33;101588.50;;;5.18;64.83
10460;BME280;54412;51.206;6.888;2023-03-03T03:19:00;101581.91;;;4.90;65.47
10460;BME280;54412;51.206;6.888;2023-03-03T03:21:27;101597.78;;;4.74;66.34
10460;BME280;54412;51.206;6.888;2023-03-03T03:23:53;101588.75;;;4.99;65.64
10460;BME280;54412;51.206;6.888;2023-03-03T03:26:19;101600.25;;;4.84;65.41
10460;BME280;54412;51.206;6.888;2023-03-03T03:28:47;101586.22;;;4.91;65.79
10460;BME280;54412;51.206;6.888;2023-03-03T03:31:13;101586.25;;;4.93;66.01
10460;BME280;54412;51.206;6.888;2023-03-03T03:33:39;101587.06;;;4.95;65.60
10460;BME280;54412;51.206;6.888;2023-03-03T03:36:05;101583.50;;;5.00;65.22
10460;BME280;54412;51.206;6.888;2023-03-03T03:38:32;101580.03;;;4.98;65.52
10460;BME280;54412;51.206;6.888;2023-03-03T03:40:59;101587.56;;;5.24;64.28
10460;BME280;54412;51.206;6.888;2023-03-03T03:43:25;101594.69;;;5.13;65.38
10460;BME280;54412;51.206;6.888;2023-03-03T03:45:51;101598.28;;;5.04;65.60
10460;BME280;54412;51.206;6.888;2023-03-03T03:48:17;101586.22;;;4.91;66.00
10460;BME280;54412;51.206;6.888;2023-03-03T03:50:46;101580.81;;;5.08;65.74
10460;BME280;54412;51.206;6.888;2023-03-03T03:53:12;101580.97;;;4.96;66.03
10460;BME280;54412;51.206;6.888;2023-03-03T03:55:38;101584.69;;;4.74;66.56
10460;BME280;54412;51.206;6.888;2023-03-03T03:58:04;101588.75;;;4.99;66.12
10460;BME280;54412;51.206;6.888;2023-03-03T04:00:29;101597.19;;;5.22;64.63
10460;BME280;54412;51.206;6.888;2023-03-03T04:02:55;101597.09;;;5.29;64.87
10460;BME280;54412;51.206;6.888;2023-03-03T04:05:21;101587.59;;;5.22;64.57
10460;BME280;54412;51.206;6.888;2023-03-03T04:07:47;101582.50;;;5.12;65.16
10460;BME280;54412;51.206;6.888;2023-03-03T04:10:13;101577.53;;;4.89;65.70
10460;BME280;54412;51.206;6.888;2023-03-03T04:12:38;101580.78;;;5.09;65.23
10460;BME280;54412;51.206;6.888;2023-03-03T04:15:07;101585.91;;;5.18;65.11
10460;BME280;54412;51.206;6.888;2023-03-03T04:17:34;101596.41;;;5.15;65.07
10460;BME280;54412;51.206;6.888;2023-03-03T04:20:00;101588.66;;;5.08;64.90
10460;BME280;54412;51.206;6.888;2023-03-03T04:22:28;101599.91;;;5.16;64.89
10460;BME280;54412;51.206;6.888;2023-03-03T04:24:56;101602.50;;;5.16;64.67
10460;BME280;54412;51.206;6.888;2023-03-03T04:27:22;101603.16;;;5.33;63.94
10460;BME280;54412;51.206;6.888;2023-03-03T04:29:48;101609.47;;;5.17;63.91
10460;BME280;54412;51.206;6.888;2023-03-03T04:32:14;101597.41;;;5.07;64.21
10460;BME280;54412;51.206;6.888;2023-03-03T04:34:39;101597.47;;;4.99;64.89
10460;BME280;54412;51.206;6.888;2023-03-03T04:37:05;101607.75;;;5.13;64.29
10460;BME280;54412;51.206;6.888;2023-03-03T04:39:30;101609.13;;;4.71;65.95
10460;BME280;54412;51.206;6.888;2023-03-03T04:41:56;101608.19;;;4.75;66.07
10460;BME280;54412;51.206;6.888;2023-03-03T04:44:22;101610.94;;;4.65;66.50
10460;BME280;54412;51.206;6.888;2023-03-03T04:46:47;101608.63;;;5.13;65.00
10460;BME280;54412;51.206;6.888;2023-03-03T04:49:13;101602.00;;;4.87;65.70
10460;BME280;54412;51.206;6.888;2023-03-03T04:51:39;101601.16;;;4.83;65.80
10460;BME280;54412;51.206;6.888;2023-03-03T04:54:04;101604.44;;;4.99;64.99
10460;BME280;54412;51.206;6.888;2023-03-03T04:56:30;101616.56;;;5.09;64.76
10460;BME280;54412;51.206;6.888;2023-03-03T04:58:57;101612.47;;;4.82;65.57
10460;BME280;54412;51.206;6.888;2023-03-03T05:01:22;101610.69;;;4.87;64.98
10460;BME280;54412;51.206;6.888;2023-03-03T05:03:48;101609.72;;;4.96;64.49
10460;BME280;54412;51.206;6.888;2023-03-03T05:06:14;101613.38;;;4.81;65.21
10460;BME280;54412;51.206;6.888;2023-03-03T05:08:41;101606.53;;;4.68;65.97
10460;BME280;54412;51.206;6.888;2023-03-03T05:11:07;101611.75;;;4.70;66.04
10460;BME280;54412;51.206;6.888;2023-03-03T05:13:33;101603.56;;;5.01;65.98
10460;BME280;54412;51.206;6.888;2023-03-03T05:15:59;101597.31;;;5.13;65.06
10460;BME280;54412;51.206;6.888;2023-03-03T05:18:25;101603.69;;;4.89;65.69
10460;BME280;54412;51.206;6.888;2023-03-03T05:20:53;101615.63;;;5.14;65.52
10460;BME280;54412;51.206;6.888;2023-03-03T05:23:20;101621.03;;;4.98;65.27
10460;BME280;54412;51.206;6.888;2023-03-03T05:25:47;101615.91;;;4.86;65.19
10460;BME280;54412;51.206;6.888;2023-03-03T05:28:13;101617.88;;;4.69;65.83
10460;BME280;54412;51.206;6.888;2023-03-03T05:30:39;101617.91;;;4.64;65.75
10460;BME280;54412;51.206;6.888;2023-03-03T05:33:06;101617.81;;;4.72;65.80
10460;BME280;54412;51.206;6.888;2023-03-03T05:35:32;101614.25;;;4.79;65.63
10460;BME280;54412;51.206;6.888;2023-03-03T05:37:59;101617.94;;;4.61;66.34
10460;BME280;54412;51.206;6.888;2023-03-03T05:40:25;101621.47;;;4.59;66.79
10460;BME280;54412;51.206;6.888;2023-03-03T05:42:52;101634.06;;;5.01;65.10
10460;BME280;54412;51.206;6.888;2023-03-03T05:45:19;101631.84;;;4.65;66.40
10460;BME280;54412;51.206;6.888;2023-03-03T05:47:47;101620.56;;;4.61;66.48
10460;BME280;54412;51.206;6.888;2023-03-03T05:50:13;101621.25;;;4.80;65.46
10460;BME280;54412;51.206;6.888;2023-03-03T05:52:39;101618.31;;;5.07;64.67
10460;BME280;54412;51.206;6.888;2023-03-03T05:55:05;101617.63;;;4.90;65.33
10460;BME280;54412;51.206;6.888;2023-03-03T05:57:31;101616.75;;;4.89;65.79
10460;BME280;54412;51.206;6.888;2023-03-03T05:59:57;101624.91;;;4.61;66.33
10460;BME280;54412;51.206;6.888;2023-03-03T06:02:23;101628.97;;;4.90;65.60
10460;BME280;54412;51.206;6.888;2023-03-03T06:04:48;101616.31;;;4.48;66.33
10460;BME280;54412;51.206;6.888;2023-03-03T06:07:14;101631.63;;;4.84;65.36
10460;BME280;54412;51.206;6.888;2023-03-03T06:09:40;101633.50;;;4.72;65.46
10460;BME280;54412;51.206;6.888;2023-03-03T06:12:06;101626.41;;;4.84;65.39
10460;BME280;54412;51.206;6.888;2023-03-03T06:14:32;101645.97;;;5.26;64.10
10460;BME280;54412;51.206;6.888;2023-03-03T06:16:57;101652.66;;;4.74;65.14
10460;BME280;54412;51.206;6.888;2023-03-03T06:19:23;101653.47;;;4.79;65.02
10460;BME280;54412;51.206;6.888;2023-03-03T06:21:49;101653.78;;;4.47;65.83
10460;BME280;54412;51.206;6.888;2023-03-03T06:24:15;101661.38;;;4.73;65.34
10460;BME280;54412;51.206;6.888;2023-03-03T06:26:41;101662.28;;;4.69;65.30
10460;BME280;54412;51.206;6.888;2023-03-03T06:29:07;101657.50;;;5.10;67.74
10460;BME280;54412;51.206;6.888;2023-03-03T06:31:33;101656.03;;;5.56;67.67
10460;BME280;54412;51.206;6.888;2023-03-03T06:33:59;101661.38;;;5.49;64.38
10460;BME280;54412;51.206;6.888;2023-03-03T06:36:24;101658.13;;;5.30;64.88
10460;BME280;54412;51.206;6.888;2023-03-03T06:38:51;101666.47;;;4.86;65.39
10460;BME280;54412;51.206;6.888;2023-03-03T06:41:16;101679.34;;;5.04;64.77
10460;BME280;54412;51.206;6.888;2023-03-03T06:43:42;101680.84;;;5.26;64.17
10460;BME280;54412;51.206;6.888;2023-03-03T06:46:08;101689.78;;;5.06;64.45
10460;BME280;54412;51.206;6.888;2023-03-03T06:48:33;101697.72;;;5.00;64.28
10460;BME280;54412;51.206;6.888;2023-03-03T06:51:02;101694.25;;;4.95;64.50
10460;BME280;54412;51.206;6.888;2023-03-03T06:53:31;101689.00;;;4.98;64.67
10460;BME280;54412;51.206;6.888;2023-03-03T06:55:58;101692.28;;;5.16;64.10
10460;BME280;54412;51.206;6.888;2023-03-03T06:58:25;101681.63;;;5.33;63.53
10460;BME280;54412;51.206;6.888;2023-03-03T07:00:59;101690.44;;;5.26;63.72
10460;BME280;54412;51.206;6.888;2023-03-03T07:03:34;101699.28;;;5.14;63.86
10460;BME280;54412;51.206;6.888;2023-03-03T07:06:01;101700.19;;;5.12;64.02
10460;BME280;54412;51.206;6.888;2023-03-03T07:08:31;101702.09;;;4.98;64.33
10460;BME280;54412;51.206;6.888;2023-03-03T07:11:06;101697.41;;;5.24;63.79
10460;BME280;54412;51.206;6.888;2023-03-03T07:13:33;101705.56;;;4.97;63.75
10460;BME280;54412;51.206;6.888;2023-03-03T07:16:08;101709.09;;;4.93;64.17
10460;BME280;54412;51.206;6.888;2023-03-03T07:18:53;101711.72;;;4.91;64.37
10460;BME280;54412;51.206;6.888;2023-03-03T07:21:32;101713.31;;;5.06;63.67
10460;BME280;54412;51.206;6.888;2023-03-03T07:24:00;101717.16;;;4.69;64.74
10460;BME280;54412;51.206;6.888;2023-03-03T07:26:33;101721.31;;;4.91;64.36
10460;BME280;54412;51.206;6.888;2023-03-03T07:29:26;101722.91;;;5.04;63.68
10460;BME280;54412;51.206;6.888;2023-03-03T07:31:55;101727.28;;;5.05;64.07
10460;BME280;54412;51.206;6.888;2023-03-03T07:34:45;101729.63;;;5.30;62.95
10460;BME280;54412;51.206;6.888;2023-03-03T07:37:45;101722.88;;;5.08;63.82
10460;BME280;54412;51.206;6.888;2023-03-03T07:40:36;101722.97;;;5.01;63.96
10460;BME280;54412;51.206;6.888;2023-03-03T07:43:34;101726.47;;;4.97;64.00
10460;BME280;54412;51.206;6.888;2023-03-03T07:48:41;101726.19;;;5.24;63.18
10460;BME280;54412;51.206;6.888;2023-03-03T07:51:22;101736.09;;;4.93;63.87
10460;BME280;54412;51.206;6.888;2023-03-03T07:54:29;101731.75;;;4.92;64.16
10460;BME280;54412;51.206;6.888;2023-03-03T07:57:21;101732.44;;;5.09;63.49
10460;BME280;54412;51.206;6.888;2023-03-03T08:03:00;101739.25;;;5.28;62.25
10460;BME280;54412;51.206;6.888;2023-03-03T08:05:35;101748.63;;;5.46;62.11
10460;BME280;54412;51.206;6.888;2023-03-03T08:08:35;101756.78;;;5.19;62.76
10460;BME280;54412;51.206;6.888;2023-03-03T08:11:07;101754.59;;;4.72;64.26
10460;BME280;54412;51.206;6.888;2023-03-03T08:18:39;101770.91;;;4.97;64.43
10460;BME280;54412;51.206;6.888;2023-03-03T08:21:20;101772.41;;;5.25;63.82
10460;BME280;54412;51.206;6.888;2023-03-03T08:23:47;101778.59;;;5.15;64.25
10460;BME280;54412;51.206;6.888;2023-03-03T08:26:17;101774.09;;;5.27;64.28
10460;BME280;54412;51.206;6.888;2023-03-03T08:28:44;101782.88;;;5.25;64.40
10460;BME280;54412;51.206;6.888;2023-03-03T08:31:09;101784.50;;;5.35;63.77
10460;BME280;54412;51.206;6.888;2023-03-03T08:33:35;101786.34;;;5.25;64.29
10460;BME280;54412;51.206;6.888;2023-03-03T08:36:01;101781.16;;;5.22;64.22
10460;BME280;54412;51.206;6.888;2023-03-03T08:38:27;101789.59;;;5.47;63.65
10460;BME280;54412;51.206;6.888;2023-03-03T08:40:53;101788.69;;;5.51;62.75
10460;BME280;54412;51.206;6.888;2023-03-03T08:43:18;101789.72;;;5.37;63.26
10460;BME280;54412;51.206;6.888;2023-03-03T08:45:50;101788.69;;;5.51;63.02
10460;BME280;54412;51.206;6.888;2023-03-03T08:48:16;101781.19;;;5.18;63.75
10460;BME280;54412;51.206;6.888;2023-03-03T08:50:43;101788.06;;;5.28;63.45
10460;BME280;54412;51.206;6.888;2023-03-03T08:53:10;101789.78;;;5.32;63.18
10460;BME280;54412;51.206;6.888;2023-03-03T08:55:37;101791.50;;;5.33;62.96
10460;BME280;54412;51.206;6.888;2023-03-03T08:58:03;101790.38;;;5.55;62.02
10460;BME280;54412;51.206;6.888;2023-03-03T09:00:28;101790.34;;;5.58;62.01
10460;BME280;54412;51.206;6.888;2023-03-03T09:02:54;101799.13;;;5.53;62.66
10460;BME280;54412;51.206;6.888;2023-03-03T09:05:22;101801.06;;;5.37;63.04
10460;BME280;54412;51.206;6.888;2023-03-03T09:07:49;101797.63;;;5.32;62.72
10460;BME280;54412;51.206;6.888;2023-03-03T09:10:21;101806.06;;;5.58;61.88
10460;BME280;54412;51.206;6.888;2023-03-03T09:12:54;101810.44;;;5.55;62.20
10460;BME280;54412;51.206;6.888;2023-03-03T09:18:17;101804.25;;;5.63;61.37
10460;BME280;54412;51.206;6.888;2023-03-03T09:20:47;101804.47;;;5.42;62.18
10460;BME280;54412;51.206;6.888;2023-03-03T09:23:37;101808.88;;;5.39;62.47
10460;BME280;54412;51.206;6.888;2023-03-03T09:28:47;101810.63;;;5.41;62.14
10460;BME280;54412;51.206;6.888;2023-03-03T09:31:30;101823.88;;;5.20;62.66
10460;BME280;54412;51.206;6.888;2023-03-03T09:34:01;101831.56;;;5.38;62.63
10460;BME280;54412;51.206;6.888;2023-03-03T09:36:36;101832.44;;;5.37;62.89
10460;BME280;54412;51.206;6.888;2023-03-03T09:39:20;101835.22;;;5.19;62.60
10460;BME280;54412;51.206;6.888;2023-03-03T09:45:22;101850.09;;;5.11;63.38
10460;BME280;54412;51.206;6.888;2023-03-03T09:48:32;101841.41;;;5.10;63.46
10460;BME280;54412;51.206;6.888;2023-03-03T09:51:36;101842.91;;;5.37;62.25
10460;BME280;54412;51.206;6.888;2023-03-03T09:56:52;101851.25;;;5.72;60.86
10460;BME280;54412;51.206;6.888;2023-03-03T10:00:07;101851.66;;;5.33;61.63
10460;BME280;54412;51.206;6.888;2023-03-03T10:03:02;101856.88;;;5.34;61.91
10460;BME280;54412;51.206;6.888;2023-03-03T10:05:57;101856.91;;;5.31;62.47
10460;BME280;54412;51.206;6.888;2023-03-03T10:22:54;101854.81;;;5.65;60.54
10460;BME280;54412;51.206;6.888;2023-03-03T10:25:39;101846.34;;;5.42;61.54
10460;BME280;54412;51.206;6.888;2023-03-03T10:28:44;101847.06;;;5.56;60.77
10460;BME280;54412;51.206;6.888;2023-03-03T10:31:32;101852.31;;;5.56;60.86
10460;BME280;54412;51.206;6.888;2023-03-03T10:37:43;101842.38;;;5.88;60.11
10460;BME280;54412;51.206;6.888;2023-03-03T10:40:34;101853.78;;;5.80;60.00
10460;BME280;54412;51.206;6.888;2023-03-03T10:46:03;101856.50;;;5.72;60.36
10460;BME280;54412;51.206;6.888;2023-03-03T10:52:08;101862.50;;;5.83;60.34
10460;BME280;54412;51.206;6.888;2023-03-03T10:55:17;101862.50;;;5.82;60.32
10460;BME280;54412;51.206;6.888;2023-03-03T10:58:11;101867.91;;;5.68;60.27
10460;BME280;54412;51.206;6.888;2023-03-03T11:04:17;101866.25;;;5.61;60.56
10460;BME280;54412;51.206;6.888;2023-03-03T11:12:38;101860.69;;;5.91;60.22
10460;BME280;54412;51.206;6.888;2023-03-03T11:15:50;101859.72;;;5.98;59.69
10460;BME280;54412;51.206;6.888;2023-03-03T11:21:22;101859.69;;;6.04;58.96
10460;BME280;54412;51.206;6.888;2023-03-03T11:24:47;101858.94;;;5.93;59.58
10460;BME280;54412;51.206;6.888;2023-03-03T11:33:22;101857.19;;;5.92;59.84
10460;BME280;54412;51.206;6.888;2023-03-03T11:36:43;101846.75;;;5.89;59.58
10460;BME280;54412;51.206;6.888;2023-03-03T11:39:22;101848.22;;;6.10;59.36
10460;BME280;54412;51.206;6.888;2023-03-03T11:42:38;101848.97;;;6.21;59.01
10460;BME280;54412;51.206;6.888;2023-03-03T11:45:10;101848.06;;;6.23;59.12
10460;BME280;54412;51.206;6.888;2023-03-03T11:48:00;101839.88;;;6.46;58.17
10460;BME280;54412;51.206;6.888;2023-03-03T11:53:37;101833.94;;;6.37;58.54
10460;BME280;54412;51.206;6.888;2023-03-03T12:02:00;101826.75;;;6.49;58.37
10460;BME280;54412;51.206;6.888;2023-03-03T12:04:38;101830.03;;;6.63;58.10
10460;BME280;54412;51.206;6.888;2023-03-03T12:10:31;101817.16;;;6.47;57.85
10460;BME280;54412;51.206;6.888;2023-03-03T12:13:35;101817.28;;;6.39;58.27
10460;BME280;54412;51.206;6.888;2023-03-03T12:16:30;101817.25;;;6.41;58.82
10460;BME280;54412;51.206;6.888;2023-03-03T12:22:28;101809.59;;;6.85;57.35
10460;BME280;54412;51.206;6.888;2023-03-03T12:28:05;101810.78;;;6.64;57.96
10460;BME280;54412;51.206;6.888;2023-03-03T12:33:54;101803.72;;;6.71;57.27
10460;BME280;54412;51.206;6.888;2023-03-03T12:39:56;101802.28;;;7.05;56.80
10460;BME280;54412;51.206;6.888;2023-03-03T12:42:56;101793.44;;;7.09;56.67
10460;BME280;54412;51.206;6.888;2023-03-03T12:46:20;101801.31;;;6.56;57.67
10460;BME280;54412;51.206;6.888;2023-03-03T12:48:47;101797.50;;;6.75;58.06
10460;BME280;54412;51.206;6.888;2023-03-03T12:51:49;101800.72;;;6.93;57.47
10460;BME280;54412;51.206;6.888;2023-03-03T12:57:45;101794.00;;;6.76;58.24
10460;BME280;54412;51.206;6.888;2023-03-03T13:00:40;101796.91;;;6.58;58.94
10460;BME280;54412;51.206;6.888;2023-03-03T13:03:53;101792.97;;;6.28;58.90
10460;BME280;54412;51.206;6.888;2023-03-03T13:06:45;101799.75;;;6.43;59.54
10460;BME280;54412;51.206;6.888;2023-03-03T13:15:02;101795.78;;;6.74;58.70
10460;BME280;54412;51.206;6.888;2023-03-03T13:21:07;101801.13;;;6.68;58.34
10460;BME280;54412;51.206;6.888;2023-03-03T13:26:35;101802.91;;;6.67;58.81
10460;BME280;54412;51.206;6.888;2023-03-03T13:29:28;101804.63;;;6.67;58.30
10460;BME280;54412;51.206;6.888;2023-03-03T13:32:00;101804.22;;;6.91;58.05
10460;BME280;54412;51.206;6.888;2023-03-03T13:37:36;101797.75;;;6.60;58.30
10460;BME280;54412;51.206;6.888;2023-03-03T13:43:02;101795.81;;;6.72;58.50
10460;BME280;54412;51.206;6.888;2023-03-03T13:45:50;101794.94;;;6.72;58.32
10460;BME280;54412;51.206;6.888;2023-03-03T13:51:52;101796.22;;;7.00;57.02
10460;BME280;54412;51.206;6.888;2023-03-03T13:54:39;101784.91;;;6.98;56.84
10460;BME280;54412;51.206;6.888;2023-03-03T14:00:35;101788.41;;;7.46;55.83
10460;BME280;54412;51.206;6.888;2023-03-03T14:06:08;101783.22;;;7.43;55.96
10460;BME280;54412;51.206;6.888;2023-03-03T14:12:03;101782.06;;;7.10;56.89
10460;BME280;54412;51.206;6.888;2023-03-03T14:14:54;101779.25;;;7.20;56.64
10460;BME280;54412;51.206;6.888;2023-03-03T14:20:17;101777.00;;;7.47;56.03
10460;BME280;54412;51.206;6.888;2023-03-03T14:22:58;101773.66;;;7.38;56.44
10460;BME280;54412;51.206;6.888;2023-03-03T14:25:24;101766.88;;;7.71;55.89
10460;BME280;54412;51.206;6.888;2023-03-03T14:28:08;101768.69;;;7.69;55.40
10460;BME280;54412;51.206;6.888;2023-03-03T14:30:41;101755.97;;;8.69;52.90
10460;BME280;54412;51.206;6.888;2023-03-03T14:38:25;101755.94;;;9.36;51.90
10460;BME280;54412;51.206;6.888;2023-03-03T14:41:21;101746.66;;;9.55;51.01
10460;BME280;54412;51.206;6.888;2023-03-03T14:44:28;101745.09;;;9.77;49.87
10460;BME280;54412;51.206;6.888;2023-03-03T14:47:15;101742.41;;;9.79;49.28
10460;BME280;54412;51.206;6.888;2023-03-03T14:49:42;101738.94;;;9.78;50.28
10460;BME280;54412;51.206;6.888;2023-03-03T14:54:50;101732.09;;;9.42;50.80
10460;BME280;54412;51.206;6.888;2023-03-03T14:57:35;101735.19;;;9.56;50.19
10460;BME280;54412;51.206;6.888;2023-03-03T15:05:35;101734.63;;;9.45;50.15
10460;BME280;54412;51.206;6.888;2023-03-03T15:10:43;101726.72;;;9.45;50.48
10460;BME280;54412;51.206;6.888;2023-03-03T15:16:21;101717.28;;;9.06;51.18
10460;BME280;54412;51.206;6.888;2023-03-03T15:19:39;101723.75;;;9.25;50.80
10460;BME280;54412;51.206;6.888;2023-03-03T15:22:55;101720.16;;;9.29;50.78
10460;BME280;54412;51.206;6.888;2023-03-03T15:25:40;101724.84;;;9.18;51.42
10460;BME280;54412;51.206;6.888;2023-03-03T15:40:04;101709.97;;;9.17;51.06
10460;BME280;54412;51.206;6.888;2023-03-03T15:42:56;101704.66;;;8.86;52.42
10460;BME280;54412;51.206;6.888;2023-03-03T15:45:38;101707.56;;;9.08;51.66
10460;BME280;54412;51.206;6.888;2023-03-03T15:51:15;101705.78;;;8.76;52.16
10460;BME280;54412;51.206;6.888;2023-03-03T15:56:47;101701.94;;;8.56;52.33
10460;BME280;54412;51.206;6.888;2023-03-03T15:59:31;101698.78;;;8.41;52.73
10460;BME280;54412;51.206;6.888;2023-03-03T16:02:21;101704.31;;;8.29;53.29
10460;BME280;54412;51.206;6.888;2023-03-03T16:05:34;101703.03;;;8.45;52.35
10460;BME280;54412;51.206;6.888;2023-03-03T16:08:25;101703.56;;;8.24;52.98
10460;BME280;54412;51.206;6.888;2023-03-03T16:11:11;101704.16;;;7.97;54.12
10460;BME280;54412;51.206;6.888;2023-03-03T16:16:32;101701.59;;;7.94;54.24
10460;BME280;54412;51.206;6.888;2023-03-03T16:19:16;101701.88;;;7.81;54.55
10460;BME280;54412;51.206;6.888;2023-03-03T16:22:20;101705.22;;;7.89;54.26
10460;BME280;54412;51.206;6.888;2023-03-03T16:27:59;101704.31;;;7.90;54.54
10460;BME280;54412;51.206;6.888;2023-03-03T16:31:16;101710.06;;;7.67;55.34
10460;BME280;54412;51.206;6.888;2023-03-03T16:37:28;101711.09;;;7.60;55.54
10460;BME280;54412;51.206;6.888;2023-03-03T16:40:10;101720.88;;;7.52;55.58
10460;BME280;54412;51.206;6.888;2023-03-03T16:42:36;101707.69;;;7.57;55.65